Time;durP1;ratioP1;P1;durP2;ratioP2;P2;SDS_P1;SDS_P2;PMS_P1;PMS_P2;Temp;Humidity;BMP_temperature;BMP_pressure;BME280_temperature;BME280_humidity;BME280_pressure;Samples;Min_cycle;Max_cycle;Signal;HPM_P1;HPM_P2
2022/01/14 00:01:16;;;;;;;35.38;17.40;;;;;;;1.28;100.00;102803.03;8234173;28;20041;-64
2022/01/14 00:05:17;;;;;;;33.00;16.58;;;;;;;1.14;100.00;102802.34;8232978;28;20407;-64
2022/01/14 00:09:17;;;;;;;31.17;16.02;;;;;;;1.22;100.00;102795.13;8234745;28;20039;-64
2022/01/14 00:13:44;;;;;;;31.73;15.07;;;;;;;1.11;100.00;102786.44;8232061;28;20035;-64
2022/01/14 00:17:40;;;;;;;33.25;16.23;;;;;;;1.19;100.00;102787.19;8234963;28;20054;-64
2022/01/14 00:21:43;;;;;;;31.98;15.10;;;;;;;1.06;100.00;102777.63;8242946;28;20042;-64
2022/01/14 00:34:25;;;;;;;31.55;15.70;;;;;;;1.14;100.00;102767.72;8232696;28;20037;-64
2022/01/14 00:38:26;;;;;;;28.35;15.30;;;;;;;1.19;100.00;102773.88;8234728;28;20054;-64
2022/01/14 00:42:26;;;;;;;29.23;15.85;;;;;;;1.16;100.00;102757.94;8232172;28;20038;-64
2022/01/14 00:46:27;;;;;;;36.75;15.35;;;;;;;1.09;100.00;102745.59;8233937;28;20027;-64
2022/01/14 00:50:28;;;;;;;28.98;14.68;;;;;;;1.10;100.00;102747.38;8233315;28;20138;-64
2022/01/14 00:54:29;;;;;;;34.20;15.52;;;;;;;1.22;100.00;102753.34;8233032;28;20046;-64
2022/01/14 00:59:30;;;;;;;39.60;15.95;;;;;;;1.15;100.00;102748.16;8234369;28;20035;-64
2022/01/14 01:02:49;;;;;;;28.75;13.68;;;;;;;1.13;100.00;102736.69;8233664;28;20126;-64
2022/01/14 01:06:50;;;;;;;31.27;16.17;;;;;;;0.96;100.00;102736.06;8230053;28;20035;-64
2022/01/14 01:10:51;;;;;;;30.42;15.13;;;;;;;1.09;100.00;102740.28;8236383;28;20046;-64
2022/01/14 01:15:03;;;;;;;28.23;14.85;;;;;;;0.78;100.00;102744.38;8250623;28;20080;-64
2022/01/14 01:19:04;;;;;;;36.88;15.15;;;;;;;0.91;100.00;102736.16;8244570;28;20473;-64
2022/01/14 01:23:04;;;;;;;27.92;14.40;;;;;;;0.81;100.00;102737.22;8252025;28;20050;-64
2022/01/14 01:27:08;;;;;;;22.85;12.90;;;;;;;0.77;100.00;102727.53;8246099;28;20053;-64
2022/01/14 01:31:35;;;;;;;26.73;14.60;;;;;;;0.85;100.00;102730.94;8228181;28;20059;-64
2022/01/14 01:35:32;;;;;;;32.33;14.13;;;;;;;0.88;100.00;102730.03;8232152;28;20497;-64
2022/01/14 01:39:34;;;;;;;28.23;13.83;;;;;;;0.95;100.00;102724.53;8233636;28;20027;-64
2022/01/14 01:43:35;;;;;;;26.08;13.98;;;;;;;0.86;100.00;102732.72;8233499;28;20063;-64
2022/01/14 01:47:37;;;;;;;30.73;14.63;;;;;;;0.76;100.00;102730.22;8233096;28;20038;-64
2022/01/14 01:51:39;;;;;;;28.98;15.15;;;;;;;0.97;100.00;102719.19;8232958;28;20035;-64
2022/01/14 01:55:39;;;;;;;29.45;15.40;;;;;;;0.89;100.00;102715.78;8231820;28;20074;-64
2022/01/14 01:59:40;;;;;;;29.30;14.20;;;;;;;0.57;100.00;102724.28;8231555;28;20039;-64
2022/01/14 02:03:41;;;;;;;27.02;14.55;;;;;;;0.51;100.00;102718.19;8254787;28;20101;-64
2022/01/14 02:07:41;;;;;;;32.38;15.90;;;;;;;0.68;100.00;102710.81;8232850;28;20035;-64
2022/01/14 02:11:42;;;;;;;32.97;16.70;;;;;;;0.84;100.00;102699.00;8230894;28;20050;-64
2022/01/14 02:15:46;;;;;;;34.78;15.73;;;;;;;0.58;100.00;102698.56;8231760;28;20039;-64
2022/01/14 02:28:56;;;;;;;30.45;15.52;;;;;;;0.65;100.00;102694.91;8426586;27;20570;-64
2022/01/14 02:32:57;;;;;;;44.67;17.90;;;;;;;0.69;100.00;102696.59;8428208;28;20486;-64
2022/01/14 02:36:58;;;;;;;32.03;16.90;;;;;;;0.78;100.00;102699.09;8427243;28;20036;-64
2022/01/14 02:40:58;;;;;;;41.50;17.33;;;;;;;0.82;100.00;102700.84;8410896;28;20032;-64
2022/01/14 02:45:06;;;;;;;42.72;16.40;;;;;;;0.87;100.00;102696.28;8410222;28;20064;-64
2022/01/14 02:49:07;;;;;;;37.33;17.33;;;;;;;0.86;100.00;102694.53;8421747;28;20037;-64
2022/01/14 02:57:30;;;;;;;32.17;15.10;;;;;;;0.93;100.00;102690.88;8405672;27;20047;-64
2022/01/14 03:01:30;;;;;;;28.60;15.68;;;;;;;0.89;100.00;102689.16;8401587;28;20064;-64
2022/01/14 03:05:31;;;;;;;33.38;15.70;;;;;;;0.57;100.00;102681.72;8409890;28;20053;-64
2022/01/14 03:09:31;;;;;;;34.53;17.30;;;;;;;0.72;100.00;102680.56;8392820;28;20047;-64
2022/01/14 03:13:33;;;;;;;36.42;15.70;;;;;;;0.93;100.00;102677.56;8386475;27;20092;-64
2022/01/14 03:17:34;;;;;;;30.48;16.05;;;;;;;0.91;100.00;102680.25;8362608;28;20434;-64
2022/01/14 03:21:41;;;;;;;36.15;14.90;;;;;;;0.73;100.00;102679.69;8382342;28;20041;-64
2022/01/14 03:25:49;;;;;;;29.42;13.57;;;;;;;1.04;100.00;102678.25;8392297;28;20067;-64
2022/01/14 03:29:50;;;;;;;27.63;13.18;;;;;;;1.12;100.00;102676.31;8391910;28;20051;-64
2022/01/14 03:33:51;;;;;;;26.92;12.27;;;;;;;1.13;100.00;102672.75;8391648;28;20056;-64
2022/01/14 03:37:52;;;;;;;28.63;13.73;;;;;;;1.09;100.00;102668.38;8401783;28;20542;-64
2022/01/14 03:41:52;;;;;;;28.88;12.95;;;;;;;1.16;100.00;102667.38;8365841;28;20037;-64
2022/01/14 03:45:53;;;;;;;25.17;12.75;;;;;;;1.12;100.00;102662.97;8333438;28;20087;-64
2022/01/14 03:49:54;;;;;;;27.38;13.13;;;;;;;1.04;100.00;102657.81;8337135;28;20045;-64
2022/01/14 03:53:55;;;;;;;24.10;12.77;;;;;;;1.08;100.00;102655.97;8338207;28;20043;-64
2022/01/14 03:57:56;;;;;;;27.95;13.00;;;;;;;1.06;100.00;102652.44;8358833;28;20037;-64
2022/01/14 04:01:56;;;;;;;26.45;12.38;;;;;;;1.03;100.00;102655.16;8366813;28;20037;-64
2022/01/14 04:05:56;;;;;;;23.70;12.02;;;;;;;1.04;100.00;102651.63;8365399;28;20041;-64
2022/01/14 04:09:57;;;;;;;21.30;11.75;;;;;;;1.14;100.00;102647.88;8366303;28;20056;-64
2022/01/14 04:14:07;;;;;;;21.38;10.77;;;;;;;1.20;100.00;102637.97;8340877;28;20484;-64
2022/01/14 04:18:13;;;;;;;26.13;11.05;;;;;;;1.19;100.00;102636.19;8365499;28;20253;-64
2022/01/14 04:22:13;;;;;;;20.40;10.77;;;;;;;1.20;100.00;102637.09;8337001;28;20440;-64
2022/01/14 04:26:15;;;;;;;17.17;10.35;;;;;;;1.24;100.00;102634.34;8339976;28;20075;-64
2022/01/14 04:30:15;;;;;;;15.75;8.85;;;;;;;1.27;100.00;102633.38;8354453;28;20037;-64
2022/01/14 04:34:16;;;;;;;15.18;8.57;;;;;;;1.22;100.00;102619.31;8357993;28;20489;-64
2022/01/14 04:38:17;;;;;;;19.25;8.85;;;;;;;1.24;100.00;102617.47;8366218;28;20037;-64
2022/01/14 04:42:17;;;;;;;16.83;9.55;;;;;;;1.05;100.00;102619.63;8366887;28;20063;-64
2022/01/14 04:47:01;;;;;;;15.68;8.00;;;;;;;1.02;100.00;102616.13;8348644;28;20044;-64
2022/01/14 04:50:39;;;;;;;16.42;8.75;;;;;;;0.99;100.00;102616.19;8349386;28;20029;-64
2022/01/14 04:54:39;;;;;;;18.60;9.25;;;;;;;0.86;100.00;102607.56;8332625;28;20038;-64
2022/01/14 04:58:40;;;;;;;16.13;8.70;;;;;;;0.83;100.00;102596.09;8358409;28;20025;-64
2022/01/14 05:02:41;;;;;;;19.58;9.82;;;;;;;0.87;100.00;102584.47;8348581;28;20051;-64
2022/01/14 05:06:45;;;;;;;20.48;9.30;;;;;;;0.74;100.00;102582.94;8363773;28;20037;-64
2022/01/14 05:15:07;;;;;;;21.95;9.95;;;;;;;0.52;100.00;102584.25;8374219;27;20486;-64
2022/01/14 05:19:07;;;;;;;16.75;9.02;;;;;;;0.65;100.00;102585.78;8357002;28;20033;-64
2022/01/14 05:23:08;;;;;;;21.15;9.85;;;;;;;0.72;100.00;102593.63;8352706;28;20539;-64
2022/01/14 05:27:08;;;;;;;17.27;8.50;;;;;;;0.50;100.00;102599.34;8357496;28;20116;-64
2022/01/14 05:31:09;;;;;;;17.70;8.95;;;;;;;0.42;100.00;102595.97;8363330;28;20951;-64
2022/01/14 05:35:09;;;;;;;16.13;9.05;;;;;;;0.42;100.00;102595.97;8357225;28;20038;-64
2022/01/14 05:39:11;;;;;;;17.50;8.98;;;;;;;0.37;100.00;102598.72;8359808;28;20044;-64
2022/01/14 05:43:11;;;;;;;17.20;9.20;;;;;;;0.53;100.00;102604.63;8359575;28;20116;-64
2022/01/14 05:47:12;;;;;;;18.05;9.10;;;;;;;0.62;100.00;102609.78;8345930;28;20050;-64
2022/01/14 05:51:12;;;;;;;18.40;8.77;;;;;;;0.38;100.00;102610.19;8348769;28;20458;-64
2022/01/14 05:55:15;;;;;;;15.30;8.75;;;;;;;0.41;100.00;102612.81;8368945;28;20373;-64
2022/01/14 05:59:16;;;;;;;17.83;8.68;;;;;;;0.33;100.00;102607.63;8377711;28;20371;-64
2022/01/14 06:03:17;;;;;;;15.85;8.50;;;;;;;0.31;100.00;102608.56;8373609;28;20443;-64
2022/01/14 06:07:18;;;;;;;16.38;8.65;;;;;;;0.39;100.00;102601.34;8369641;28;20045;-64
2022/01/14 06:11:19;;;;;;;18.83;9.73;;;;;;;0.30;100.00;102605.00;8372342;28;20543;-64
2022/01/14 06:15:19;;;;;;;20.10;9.77;;;;;;;0.42;100.00;102601.28;8375582;28;20523;-64
2022/01/14 06:19:20;;;;;;;16.90;8.40;;;;;;;0.48;100.00;102607.34;8369732;28;20143;-64
2022/01/14 06:23:20;;;;;;;16.42;8.48;;;;;;;0.43;100.00;102613.66;8334409;28;20041;-64
2022/01/14 06:27:20;;;;;;;16.38;9.60;;;;;;;0.38;100.00;102615.53;8350155;28;20483;-64
2022/01/14 06:31:21;;;;;;;17.10;8.40;;;;;;;0.54;100.00;102606.38;8360536;28;20049;-64
2022/01/14 06:35:21;;;;;;;14.65;8.02;;;;;;;0.51;100.00;102609.09;8355159;28;20064;-64
2022/01/14 06:39:22;;;;;;;19.58;8.50;;;;;;;0.44;100.00;102615.41;8355671;28;20133;-64
2022/01/14 06:43:22;;;;;;;13.55;7.93;;;;;;;0.35;100.00;102599.59;8349802;28;20045;-64
2022/01/14 06:47:23;;;;;;;16.38;9.10;;;;;;;0.44;100.00;102604.78;8355045;28;20544;-64
2022/01/14 06:51:23;;;;;;;16.23;7.82;;;;;;;0.40;100.00;102613.72;8354676;28;20044;-64
2022/01/14 06:55:24;;;;;;;17.27;7.93;;;;;;;0.28;100.00;102609.50;8347610;28;20056;-64
2022/01/14 06:59:24;;;;;;;14.45;7.70;;;;;;;0.37;100.00;102603.13;8348469;28;20091;-64
2022/01/14 07:03:24;;;;;;;15.80;8.40;;;;;;;0.13;100.00;102582.25;8347378;28;20057;-64
2022/01/14 07:07:25;;;;;;;19.85;9.65;;;;;;;-0.01;100.00;102595.75;8347155;28;20068;-64
2022/01/14 07:11:36;;;;;;;22.35;11.10;;;;;;;0.11;100.00;102586.69;8344225;28;20154;-64
2022/01/14 07:15:36;;;;;;;18.25;11.52;;;;;;;0.25;100.00;102582.06;8350992;28;20129;-64
2022/01/14 07:19:37;;;;;;;17.85;9.18;;;;;;;0.15;100.00;102591.09;8345054;28;20344;-64
2022/01/14 07:23:37;;;;;;;13.90;8.32;;;;;;;0.16;100.00;102577.78;8347593;28;20044;-64
2022/01/14 07:27:38;;;;;;;21.65;9.30;;;;;;;0.16;100.00;102582.19;8346984;28;20176;-64
2022/01/14 07:31:38;;;;;;;20.05;10.07;;;;;;;0.22;100.00;102580.34;8344252;28;20061;-64
2022/01/14 07:35:40;;;;;;;15.13;9.02;;;;;;;0.23;100.00;102594.50;8342875;28;20516;-64
2022/01/14 07:39:40;;;;;;;23.40;9.43;;;;;;;0.14;100.00;102594.63;8353950;28;20041;-64
2022/01/14 07:43:46;;;;;;;15.43;8.70;;;;;;;-0.18;100.00;102593.34;8359336;28;20037;-64
2022/01/14 07:47:46;;;;;;;16.38;9.27;;;;;;;0.07;100.00;102596.53;8359573;28;20064;-64
2022/01/14 07:51:47;;;;;;;15.65;8.88;;;;;;;0.75;100.00;102600.66;8358836;28;20037;-65
2022/01/14 07:55:47;;;;;;;12.35;8.10;;;;;;;0.03;100.00;102604.56;8358724;28;20424;-64
2022/01/14 07:59:47;;;;;;;17.42;9.20;;;;;;;0.03;100.00;102614.28;8340186;28;20412;-64
2022/01/14 08:03:48;;;;;;;20.08;9.90;;;;;;;0.30;100.00;102617.44;8358609;28;20033;-64
2022/01/14 08:07:51;;;;;;;15.75;9.07;;;;;;;0.12;100.00;102605.28;8358153;28;20090;-64
2022/01/14 08:11:52;;;;;;;17.25;8.75;;;;;;;0.44;100.00;102608.31;8357647;28;20048;-64
2022/01/14 08:15:53;;;;;;;14.40;8.52;;;;;;;0.56;100.00;102615.22;8341546;28;20047;-64
2022/01/14 08:19:53;;;;;;;14.23;9.13;;;;;;;0.62;100.00;102605.34;8358203;28;20033;-64
2022/01/14 08:23:54;;;;;;;21.17;12.18;;;;;;;1.02;100.00;102616.13;8358205;28;20540;-64
2022/01/14 08:27:54;;;;;;;17.17;9.45;;;;;;;1.03;100.00;102617.88;8332447;28;20077;-64
2022/01/14 08:31:55;;;;;;;16.45;9.75;;;;;;;1.42;100.00;102617.09;8324772;28;20045;-64
2022/01/14 08:35:56;;;;;;;17.50;9.10;;;;;;;1.43;100.00;102613.50;8322781;28;20040;-64
2022/01/14 08:39:56;;;;;;;15.05;8.55;;;;;;;1.81;100.00;102626.91;8352611;28;20033;-64
2022/01/14 08:43:58;;;;;;;13.98;8.70;;;;;;;1.98;100.00;102614.06;8357436;28;20127;-64
2022/01/14 08:47:59;;;;;;;25.88;14.25;;;;;;;2.12;100.00;102611.06;8355513;28;20052;-64
2022/01/14 08:52:00;;;;;;;20.40;10.82;;;;;;;2.64;100.00;102617.78;8357791;28;20037;-64
2022/01/14 08:56:00;;;;;;;15.38;9.05;;;;;;;4.26;93.54;102611.22;8357827;28;20056;-64
2022/01/14 09:00:01;;;;;;;16.20;7.88;;;;;;;5.49;86.58;102590.75;8357235;28;20033;-64
2022/01/14 09:04:02;;;;;;;11.82;6.43;;;;;;;6.29;82.61;102591.16;8355563;28;20052;-64
2022/01/14 09:08:02;;;;;;;17.73;7.38;;;;;;;6.94;81.55;102597.31;8354268;28;20040;-64
2022/01/14 09:12:03;;;;;;;12.52;6.40;;;;;;;7.45;78.33;102600.38;8349847;28;20406;-64
2022/01/14 09:16:04;;;;;;;10.77;6.93;;;;;;;7.84;76.35;102598.50;8358115;28;20358;-64
2022/01/14 09:20:05;;;;;;;13.40;5.97;;;;;;;8.43;75.06;102583.97;8357452;28;20391;-64
2022/01/14 09:24:08;;;;;;;15.38;6.82;;;;;;;8.71;73.12;102581.63;8359543;28;20098;-64
2022/01/14 09:28:08;;;;;;;13.77;6.55;;;;;;;8.64;73.38;102581.09;8356773;28;20037;-64
2022/01/14 09:32:09;;;;;;;14.07;7.35;;;;;;;8.28;74.42;102576.66;8357340;28;20041;-64
2022/01/14 09:36:10;;;;;;;14.68;7.00;;;;;;;8.52;74.87;102570.94;8358236;28;20480;-64
2022/01/14 09:40:13;;;;;;;18.88;8.25;;;;;;;9.28;72.52;102563.28;8358524;28;20041;-64
2022/01/14 09:44:15;;;;;;;21.10;9.20;;;;;;;9.93;71.88;102567.75;8358164;28;20414;-64
2022/01/14 09:48:15;;;;;;;19.75;10.25;;;;;;;10.31;69.15;102563.72;8358671;28;20035;-64
2022/01/14 09:52:17;;;;;;;15.23;7.03;;;;;;;10.70;68.26;102566.81;8359628;28;20045;-64
2022/01/14 09:56:21;;;;;;;17.73;6.90;;;;;;;10.89;68.47;102562.03;8357030;28;20044;-65
2022/01/14 10:00:21;;;;;;;16.20;7.53;;;;;;;11.65;66.01;102564.47;8362784;28;20394;-65
2022/01/14 10:04:22;;;;;;;18.70;7.97;;;;;;;12.09;66.10;102568.84;8364681;28;20044;-65
2022/01/14 10:08:27;;;;;;;13.25;8.00;;;;;;;12.90;64.11;102574.19;8364277;28;20068;-65
2022/01/14 10:12:33;;;;;;;;;;;;;;;11.67;65.50;102577.91;8363006;28;20140;-65
2022/01/14 10:16:33;;;;;;;14.25;6.22;;;;;;;10.76;67.10;102593.50;8363086;28;19917;-65
2022/01/14 10:20:37;;;;;;;11.88;7.10;;;;;;;12.13;66.04;102573.13;8363501;28;20118;-65
2022/01/14 10:24:37;;;;;;;13.60;7.47;;;;;;;12.87;62.54;102579.81;8363310;28;20072;-65
2022/01/14 10:28:38;;;;;;;21.73;9.82;;;;;;;13.55;60.75;102589.47;8363703;28;20428;-65
2022/01/14 10:32:40;;;;;;;17.92;9.00;;;;;;;12.48;63.31;102593.34;8363211;28;20041;-65
2022/01/14 10:36:45;;;;;;;17.95;8.65;;;;;;;13.80;62.09;102589.47;8362838;28;20041;-65
2022/01/14 10:40:51;;;;;;;17.98;9.07;;;;;;;13.39;61.95;102597.00;8347149;28;20060;-65
2022/01/14 10:44:52;;;;;;;18.38;9.88;;;;;;;12.67;63.03;102599.28;8347734;28;20037;-65
2022/01/14 10:48:54;;;;;;;18.65;9.00;;;;;;;12.02;65.88;102591.94;8363313;28;20036;-65
2022/01/14 10:52:55;;;;;;;24.63;11.05;;;;;;;12.10;65.48;102592.31;8363322;28;20037;-65
2022/01/14 10:57:11;;;;;;;28.33;11.45;;;;;;;11.88;65.69;102588.28;8368190;28;20059;-65
2022/01/14 11:01:15;;;;;;;20.08;11.40;;;;;;;12.82;63.63;102588.28;8346997;28;20079;-65
2022/01/14 11:05:19;;;;;;;33.25;14.50;;;;;;;12.36;64.68;102573.34;8355181;28;20465;-65
2022/01/14 11:09:22;;;;;;;27.87;14.37;;;;;;;12.50;65.74;102569.72;8346232;28;20053;-65
2022/01/14 11:13:23;;;;;;;37.63;17.00;;;;;;;12.18;65.90;102565.53;8346408;28;20084;-65
2022/01/14 11:17:23;;;;;;;37.55;19.05;;;;;;;11.83;67.46;102562.41;8360532;28;20047;-65
2022/01/14 11:25:52;;;;;;;42.03;20.10;;;;;;;11.48;70.74;102551.09;8346422;28;20041;-64
2022/01/14 11:29:58;;;;;;;35.85;19.27;;;;;;;12.22;68.65;102540.84;8360218;28;20044;-64
2022/01/14 11:34:00;;;;;;;35.97;18.80;;;;;;;12.22;67.35;102538.13;8359397;28;20041;-64
2022/01/14 11:38:01;;;;;;;44.75;20.83;;;;;;;11.08;70.84;102557.25;8361414;28;20061;-65
2022/01/14 11:50:50;;;;;;;47.75;22.90;;;;;;;11.01;72.78;102555.03;8350285;27;20510;-64
2022/01/14 11:54:50;;;;;;;49.03;23.17;;;;;;;11.13;71.33;102538.88;8352255;28;20037;-64
2022/01/14 11:58:53;;;;;;;49.17;23.45;;;;;;;11.55;70.39;102536.19;8354056;28;20033;-64
2022/01/14 12:02:58;;;;;;;46.83;22.73;;;;;;;11.32;70.88;102544.88;8353391;28;20471;-64
2022/01/14 12:06:59;;;;;;;49.90;23.13;;;;;;;11.39;71.07;102540.84;8353585;28;20087;-64
2022/01/14 12:15:46;;;;;;;44.13;23.13;;;;;;;10.66;72.97;102535.50;8382710;27;20819;-64
2022/01/14 12:19:47;;;;;;;57.28;26.45;;;;;;;11.30;71.99;102533.28;8354518;28;20452;-64
2022/01/14 12:23:47;;;;;;;54.67;25.83;;;;;;;10.80;73.13;102530.09;8354420;28;20065;-64
2022/01/14 12:27:48;;;;;;;64.25;30.05;;;;;;;10.34;74.72;102533.81;8354491;28;20060;-64
2022/01/14 12:32:06;;;;;;;64.07;28.50;;;;;;;10.25;76.29;102531.69;8354869;28;20562;-64
2022/01/14 12:36:14;;;;;;;60.45;29.80;;;;;;;10.13;77.35;102516.16;8385337;28;20032;-64
2022/01/14 12:40:36;;;;;;;64.70;30.92;;;;;;;9.53;80.37;102520.50;8311331;28;20042;-64
2022/01/14 12:44:40;;;;;;;77.30;33.53;;;;;;;8.65;84.84;102522.63;8309166;28;20077;-64
2022/01/14 12:48:52;;;;;;;81.18;37.47;;;;;;;7.95;89.17;102519.88;8306312;28;20079;-64
2022/01/14 12:52:52;;;;;;;87.50;37.67;;;;;;;7.61;92.60;102523.34;8308133;28;20034;-64
2022/01/14 12:56:54;;;;;;;96.70;39.30;;;;;;;7.29;95.35;102529.34;8323116;28;20376;-64
2022/01/14 13:01:07;;;;;;;101.82;41.60;;;;;;;7.16;97.94;102528.16;8326314;28;20059;-64
2022/01/14 13:05:15;;;;;;;101.40;43.50;;;;;;;7.18;99.46;102525.41;8328173;28;20041;-64
2022/01/14 13:09:20;;;;;;;116.78;44.92;;;;;;;7.18;100.00;102525.41;8308503;28;20056;-64
2022/01/14 13:13:24;;;;;;;124.28;45.22;;;;;;;7.02;100.00;102508.22;8328725;28;20041;-64
2022/01/14 13:17:30;;;;;;;122.00;43.87;;;;;;;6.87;100.00;102512.50;8314323;28;20064;-64
2022/01/14 13:21:30;;;;;;;125.22;45.45;;;;;;;6.86;100.00;102510.72;8326178;28;20767;-64
2022/01/14 13:25:33;;;;;;;129.23;44.28;;;;;;;6.87;100.00;102506.22;8293054;28;20069;-64
2022/01/14 13:29:40;;;;;;;124.00;44.15;;;;;;;6.68;100.00;102519.59;8295114;28;20044;-64
2022/01/14 13:33:41;;;;;;;123.20;38.05;;;;;;;6.61;100.00;102511.84;8281339;28;20101;-64
2022/01/14 13:37:43;;;;;;;119.88;39.13;;;;;;;6.60;100.00;102511.00;8318877;28;20065;-64
2022/01/14 13:41:44;;;;;;;131.80;44.17;;;;;;;6.62;100.00;102494.81;8348799;28;20036;-64
2022/01/14 13:45:47;;;;;;;145.18;42.22;;;;;;;6.56;100.00;102504.00;8363714;28;20049;-64
2022/01/14 13:50:08;;;;;;;152.40;43.40;;;;;;;6.60;100.00;102494.88;8350855;28;20037;-64
2022/01/14 13:54:11;;;;;;;149.18;45.17;;;;;;;6.63;100.00;102500.13;8311812;28;20760;-64
2022/01/14 13:58:19;;;;;;;145.25;44.42;;;;;;;6.56;100.00;102506.69;8307959;28;20100;-64
2022/01/14 14:02:28;;;;;;;132.63;45.30;;;;;;;6.50;100.00;102508.78;8290103;28;20685;-64
2022/01/14 14:06:35;;;;;;;145.45;42.92;;;;;;;6.35;100.00;102509.44;8286325;28;20659;-64
2022/01/14 14:11:47;;;;;;;134.30;43.17;;;;;;;6.27;100.00;102504.38;8309439;28;20056;-64
2022/01/14 14:15:56;;;;;;;126.78;36.72;;;;;;;6.32;100.00;102502.38;8318116;28;20047;-64
2022/01/14 14:19:17;;;;;;;104.55;34.88;;;;;;;6.08;100.00;102495.38;8325139;28;20049;-64
2022/01/14 14:23:22;;;;;;;111.30;37.58;;;;;;;6.07;100.00;102498.97;8320463;28;20041;-64
2022/01/14 14:27:24;;;;;;;104.55;32.47;;;;;;;6.03;100.00;102498.22;8336982;28;20042;-64
2022/01/14 14:31:28;;;;;;;94.47;29.60;;;;;;;6.06;100.00;102497.22;8348763;28;20038;-64
2022/01/14 14:35:34;;;;;;;90.00;30.63;;;;;;;6.07;100.00;102492.75;8334440;28;20052;-64
2022/01/14 14:39:35;;;;;;;93.15;29.98;;;;;;;6.14;100.00;102497.78;8343611;28;20113;-64
2022/01/14 14:43:36;;;;;;;98.03;32.60;;;;;;;6.11;100.00;102489.88;8339867;28;20183;-64
2022/01/14 14:47:38;;;;;;;104.60;33.22;;;;;;;5.96;100.00;102490.50;8324784;28;20038;-64
2022/01/14 14:51:39;;;;;;;111.32;33.83;;;;;;;5.92;100.00;102483.50;8317669;28;20053;-64
2022/01/14 14:55:39;;;;;;;106.00;34.58;;;;;;;5.89;100.00;102486.31;8336423;28;20077;-64
2022/01/14 14:59:41;;;;;;;111.32;32.97;;;;;;;5.96;100.00;102486.00;8326221;28;20156;-64
2022/01/14 15:03:41;;;;;;;102.25;34.10;;;;;;;5.91;100.00;102487.13;8311724;28;20045;-64
2022/01/14 15:07:41;;;;;;;88.03;30.42;;;;;;;5.95;100.00;102494.13;8321129;28;20037;-64
2022/01/14 15:11:57;;;;;;;101.50;33.08;;;;;;;5.92;100.00;102480.84;8324694;28;20064;-64
2022/01/14 15:20:10;;;;;;;97.82;31.63;;;;;;;5.89;100.00;102489.88;8372095;27;20487;-64
2022/01/14 15:24:11;;;;;;;92.85;31.33;;;;;;;5.78;100.00;102492.09;8323121;28;20053;-64
2022/01/14 15:28:13;;;;;;;99.35;32.53;;;;;;;5.78;100.00;102501.94;8329210;28;20528;-64
2022/01/14 15:32:13;;;;;;;106.22;34.15;;;;;;;5.79;100.00;102495.63;8324393;28;20094;-64
2022/01/14 15:36:14;;;;;;;101.93;33.75;;;;;;;5.75;100.00;102494.00;8352858;28;20040;-64
2022/01/14 15:40:21;;;;;;;99.03;33.25;;;;;;;5.75;100.00;102497.59;8355922;28;20041;-64
2022/01/14 15:44:22;;;;;;;99.80;33.35;;;;;;;5.80;100.00;102494.72;8338206;28;20520;-64
2022/01/14 15:48:23;;;;;;;94.95;31.30;;;;;;;5.75;100.00;102484.16;8314564;28;20448;-64
2022/01/14 15:52:23;;;;;;;95.05;31.95;;;;;;;5.74;100.00;102478.84;8311926;28;20053;-64
2022/01/14 15:56:24;;;;;;;83.40;29.17;;;;;;;5.77;100.00;102473.38;8336159;28;20053;-64
2022/01/14 16:00:24;;;;;;;92.03;31.80;;;;;;;5.78;100.00;102481.34;8365511;28;20047;-64
2022/01/14 16:04:25;;;;;;;94.53;35.63;;;;;;;5.77;100.00;102468.00;8380086;28;20078;-64
2022/01/14 16:08:25;;;;;;;100.70;34.42;;;;;;;5.84;100.00;102464.16;8379001;28;20052;-64
2022/01/14 16:12:33;;;;;;;114.18;39.20;;;;;;;5.76;100.00;102466.22;8378194;28;20076;-64
2022/01/14 16:16:33;;;;;;;119.25;38.13;;;;;;;5.70;100.00;102456.63;8406674;28;20247;-64
2022/01/14 16:20:34;;;;;;;141.02;38.35;;;;;;;5.73;100.00;102455.63;8408669;28;20543;-64
2022/01/14 16:24:36;;;;;;;151.15;39.05;;;;;;;5.61;100.00;102453.44;8413240;28;20280;-64
2022/01/14 16:28:37;;;;;;;173.45;41.15;;;;;;;5.61;100.00;102450.75;8443189;28;20434;-64
2022/01/14 16:32:37;;;;;;;167.95;39.83;;;;;;;5.64;100.00;102456.00;8413731;28;20039;-64
2022/01/14 16:36:37;;;;;;;172.00;42.03;;;;;;;5.64;100.00;102451.50;8423638;28;20440;-64
2022/01/14 16:40:38;;;;;;;179.90;43.35;;;;;;;5.59;100.00;102458.00;8426511;28;20044;-64
2022/01/14 16:44:42;;;;;;;156.52;39.60;;;;;;;5.63;100.00;102459.63;8423253;28;20051;-64
2022/01/14 16:48:43;;;;;;;169.13;38.80;;;;;;;5.56;100.00;102453.66;8425479;28;20165;-64
2022/01/14 16:52:44;;;;;;;166.52;41.13;;;;;;;5.60;100.00;102454.38;8426147;28;20496;-64
2022/01/14 16:56:45;;;;;;;178.90;39.78;;;;;;;5.58;100.00;102456.28;8425058;28;20569;-64
2022/01/14 17:00:45;;;;;;;184.80;40.30;;;;;;;5.57;100.00;102465.22;8425616;28;20452;-64
2022/01/14 17:04:47;;;;;;;187.15;42.05;;;;;;;5.61;100.00;102464.16;8423391;28;20542;-64
2022/01/14 17:08:47;;;;;;;183.05;40.72;;;;;;;5.53;100.00;102458.25;8419014;28;20156;-64
2022/01/14 17:12:47;;;;;;;164.20;39.83;;;;;;;5.58;100.00;102456.28;8416817;28;20040;-64
2022/01/14 17:16:49;;;;;;;186.52;41.90;;;;;;;5.54;100.00;102455.50;8425636;28;20124;-64
2022/01/14 17:20:50;;;;;;;175.63;40.63;;;;;;;5.58;100.00;102461.63;8423808;28;20032;-64
2022/01/14 17:24:50;;;;;;;188.50;42.17;;;;;;;5.63;100.00;102459.63;8407715;28;20028;-64
2022/01/14 17:28:51;;;;;;;165.13;41.25;;;;;;;5.58;100.00;102461.63;8425660;28;20054;-64
2022/01/14 17:32:52;;;;;;;162.07;42.78;;;;;;;5.61;100.00;102450.75;8416953;28;20543;-64
2022/01/14 17:36:53;;;;;;;161.05;41.05;;;;;;;5.54;100.00;102446.56;8408512;28;20040;-64
2022/01/14 17:40:57;;;;;;;169.88;40.30;;;;;;;5.52;100.00;102443.09;8425335;28;20085;-63
2022/01/14 17:44:58;;;;;;;159.20;41.75;;;;;;;5.52;100.00;102435.06;8426989;28;20491;-64
2022/01/14 17:48:58;;;;;;;164.75;40.75;;;;;;;5.62;100.00;102439.09;8407605;28;20490;-64
2022/01/14 17:52:59;;;;;;;175.15;42.15;;;;;;;5.48;100.00;102430.72;8407212;28;20035;-64
2022/01/14 17:57:00;;;;;;;157.95;39.47;;;;;;;5.45;100.00;102422.81;8425830;28;20121;-64
2022/01/14 18:01:00;;;;;;;154.93;40.92;;;;;;;5.50;100.00;102420.81;8424412;28;20069;-64
2022/01/14 18:05:01;;;;;;;172.65;42.70;;;;;;;5.51;100.00;102417.19;8423893;28;20464;-64
2022/01/14 18:09:02;;;;;;;158.55;43.88;;;;;;;5.46;100.00;102419.22;8423956;28;20036;-64
2022/01/14 18:13:25;;;;;;;151.27;41.67;;;;;;;5.51;100.00;102423.44;8422264;28;20051;-64
2022/01/14 18:17:23;;;;;;;162.77;40.80;;;;;;;5.51;100.00;102420.75;8421757;28;20055;-64
2022/01/14 18:21:24;;;;;;;156.48;41.55;;;;;;;5.49;100.00;102421.78;8425793;28;20040;-64
2022/01/14 18:25:25;;;;;;;155.30;43.20;;;;;;;5.48;100.00;102420.88;8423951;28;20044;-64
2022/01/14 18:29:26;;;;;;;157.43;42.05;;;;;;;5.49;100.00;102427.97;8425066;28;20043;-64
2022/01/14 18:33:27;;;;;;;160.85;42.88;;;;;;;5.59;100.00;102424.03;8424955;28;20054;-64
2022/01/14 18:37:27;;;;;;;160.50;45.75;;;;;;;5.58;100.00;102434.81;8424950;28;20068;-64
2022/01/14 18:41:27;;;;;;;152.90;43.50;;;;;;;5.53;100.00;102426.06;8427576;28;20102;-64
2022/01/14 18:45:30;;;;;;;148.88;42.58;;;;;;;5.55;100.00;102421.53;8406454;28;20036;-64
2022/01/14 18:49:31;;;;;;;153.02;42.17;;;;;;;5.51;100.00;102417.19;8409899;28;20044;-64
2022/01/14 18:53:31;;;;;;;143.65;39.53;;;;;;;5.48;100.00;102412.84;8426859;28;20218;-64
2022/01/14 18:57:32;;;;;;;145.10;41.30;;;;;;;5.57;100.00;102420.50;8423831;28;20051;-64
2022/01/14 19:01:33;;;;;;;130.68;38.17;;;;;;;5.56;100.00;102415.22;8424369;28;20458;-64
2022/01/14 19:05:34;;;;;;;132.88;39.58;;;;;;;5.57;100.00;102411.56;8421252;28;20074;-64
2022/01/14 19:09:34;;;;;;;121.38;38.08;;;;;;;5.54;100.00;102404.53;8423677;28;20071;-64